createdAt,value
2019-02-22T00:04:50.603Z,29.18
2019-02-22T00:09:54.866Z,29.98
2019-02-22T00:14:59.068Z,30.25
2019-02-22T00:20:03.298Z,28.10
2019-02-22T00:25:07.585Z,29.15
2019-02-22T00:30:11.936Z,30.23
2019-02-22T00:35:16.309Z,29.07
2019-02-22T00:40:20.686Z,30.75
2019-02-22T00:45:24.893Z,30.35
2019-02-22T00:50:29.106Z,31.33
2019-02-22T00:55:33.354Z,31.27
2019-02-22T01:00:37.530Z,31.33
2019-02-22T01:05:41.748Z,31.25
2019-02-22T01:10:45.937Z,29.87
2019-02-22T01:15:50.142Z,31.80
2019-02-22T01:20:54.841Z,30.68
2019-02-22T01:25:59.176Z,31.82
2019-02-22T01:31:03.354Z,31.57
2019-02-22T01:36:07.552Z,32.75
2019-02-22T01:41:11.813Z,32.33
2019-02-22T01:46:15.987Z,31.48
2019-02-22T01:51:20.227Z,31.87
2019-02-22T01:56:24.470Z,31.70
2019-02-22T02:01:28.678Z,32.98
2019-02-22T02:06:32.880Z,31.15
2019-02-22T02:11:37.080Z,31.80
2019-02-22T02:16:41.280Z,33.23
2019-02-22T02:21:45.443Z,32.25
2019-02-22T02:26:49.707Z,32.67
2019-02-22T02:31:53.891Z,32.30
2019-02-22T02:36:58.198Z,31.90
2019-02-22T02:42:02.436Z,32.45
2019-02-22T02:47:06.637Z,31.87
2019-02-22T02:52:10.851Z,32.45
2019-02-22T02:57:15.039Z,32.48
2019-02-22T03:02:30.399Z,33.13
2019-02-22T03:07:42.208Z,33.80
2019-02-22T03:12:46.381Z,33.78
2019-02-22T03:17:50.568Z,33.98
2019-02-22T03:22:54.765Z,32.67
2019-02-22T03:27:58.945Z,34.80
2019-02-22T03:33:03.154Z,33.88
2019-02-22T03:38:07.419Z,34.85
2019-02-22T03:43:11.693Z,35.25
2019-02-22T03:48:15.967Z,34.48
2019-02-22T03:53:24.111Z,34.98
2019-02-22T03:58:28.287Z,33.53
2019-02-22T04:03:32.489Z,32.58
2019-02-22T04:08:36.845Z,31.33
2019-02-22T04:13:41.180Z,29.10
2019-02-22T04:18:45.423Z,30.57
2019-02-22T04:23:49.601Z,28.25
2019-02-22T04:28:56.946Z,28.73
2019-02-22T04:34:01.228Z,27.45
2019-02-22T04:39:06.429Z,28.30
2019-02-22T04:44:10.643Z,28.50
2019-02-22T04:49:14.830Z,27.30
2019-02-22T04:54:19.087Z,27.90
2019-02-22T04:59:23.302Z,27.85
2019-02-22T05:04:27.502Z,28.57
2019-02-22T05:09:31.789Z,27.87
2019-02-22T05:14:36.294Z,26.95
2019-02-22T05:19:40.534Z,28.85
2019-02-22T05:24:44.712Z,27.62
2019-02-22T05:29:48.902Z,27.40
2019-02-22T05:34:53.092Z,27.00
2019-02-22T05:39:57.282Z,30.25
2019-02-22T05:45:01.457Z,27.07
2019-02-22T05:50:05.844Z,26.55
2019-02-22T05:55:10.079Z,27.50
2019-02-22T06:00:15.246Z,27.15
2019-02-22T06:05:19.457Z,27.42
2019-02-22T06:10:23.644Z,27.20
2019-02-22T06:15:27.818Z,27.98
2019-02-22T06:20:31.994Z,27.85
2019-02-22T06:25:36.188Z,28.05
2019-02-22T06:30:40.350Z,29.55
2019-02-22T06:35:44.545Z,26.85
2019-02-22T06:40:48.763Z,26.87
2019-02-22T06:45:52.939Z,26.00
2019-02-22T06:50:57.113Z,25.80
2019-02-22T06:56:01.287Z,26.25
2019-02-22T07:01:05.469Z,25.85
2019-02-22T07:06:09.725Z,24.85
2019-02-22T07:11:18.845Z,24.95
2019-02-22T07:16:23.110Z,23.57
2019-02-22T07:21:40.191Z,24.80
2019-02-22T07:26:33.435Z,23.42
2019-02-22T07:31:37.703Z,23.18
2019-02-22T07:36:41.882Z,22.87
2019-02-22T07:41:46.075Z,21.68
2019-02-22T07:46:50.272Z,20.82
2019-02-22T07:51:54.489Z,20.85
2019-02-22T07:56:58.880Z,22.48
2019-02-22T08:02:03.143Z,19.60
2019-02-22T08:07:07.423Z,18.87
2019-02-22T08:12:11.646Z,18.45
2019-02-22T08:17:15.934Z,17.87
2019-02-22T08:22:20.830Z,17.50
2019-02-22T08:27:25.230Z,16.55
2019-02-22T08:32:29.426Z,15.88
2019-02-22T08:37:33.613Z,16.70
2019-02-22T08:42:37.962Z,15.32
2019-02-22T08:47:42.339Z,16.80
2019-02-22T08:52:46.610Z,16.42
2019-02-22T08:57:50.923Z,14.98
2019-02-22T09:02:55.091Z,14.87
2019-02-22T09:07:59.284Z,11.60
2019-02-22T09:13:03.500Z,11.83
2019-02-22T09:18:07.746Z,11.22
2019-02-22T09:23:11.936Z,11.45
2019-02-22T09:28:16.214Z,11.78
2019-02-22T09:33:20.403Z,11.93
2019-02-22T09:38:24.588Z,12.33
2019-02-22T09:43:28.844Z,11.03
2019-02-22T09:48:33.041Z,11.48
2019-02-22T09:53:37.240Z,11.18
2019-02-22T09:58:41.470Z,10.75
2019-02-22T10:03:45.662Z,11.18
2019-02-22T10:08:49.828Z,9.23
2019-02-22T10:13:54.025Z,5.58
2019-02-22T10:18:58.203Z,5.33
2019-02-22T10:24:02.415Z,7.08
2019-02-22T10:29:06.641Z,7.17
2019-02-22T10:34:10.906Z,7.17
2019-02-22T10:39:15.113Z,5.85
2019-02-22T10:44:19.295Z,5.60
2019-02-22T10:49:23.469Z,5.28
2019-02-22T10:54:27.679Z,5.70
2019-02-22T10:59:31.885Z,6.25
2019-02-22T11:04:36.082Z,6.00
2019-02-22T11:09:40.352Z,7.00
2019-02-22T11:14:44.565Z,6.78
2019-02-22T11:19:48.753Z,7.10
2019-02-22T11:24:53.007Z,7.45
2019-02-22T11:29:57.245Z,7.90
2019-02-22T11:35:01.450Z,7.15
2019-02-22T11:40:05.910Z,6.08
2019-02-22T11:45:10.213Z,6.08
2019-02-22T11:50:14.508Z,5.97
2019-02-22T11:55:18.860Z,5.47
2019-02-22T12:00:24.917Z,5.23
2019-02-22T12:05:29.111Z,4.30
2019-02-22T12:10:33.295Z,4.30
2019-02-22T12:15:37.544Z,4.47
2019-02-22T12:20:41.712Z,4.30
2019-02-22T12:25:45.929Z,4.33
2019-02-22T12:30:50.114Z,4.00
2019-02-22T12:35:54.387Z,3.73
2019-02-22T12:40:58.048Z,3.55
2019-02-22T12:46:02.246Z,3.47
2019-02-22T12:51:06.564Z,4.17
2019-02-22T12:56:10.743Z,5.90
2019-02-22T13:01:14.988Z,5.13
2019-02-22T13:06:19.178Z,5.60
2019-02-22T13:11:23.369Z,8.05
2019-02-22T13:16:27.558Z,7.53
2019-02-22T13:21:31.746Z,5.75
2019-02-22T13:26:36.021Z,5.37
2019-02-22T13:31:40.207Z,8.17
2019-02-22T13:36:44.409Z,10.25
2019-02-22T13:41:48.588Z,11.48
2019-02-22T13:46:52.904Z,13.58
2019-02-22T13:51:58.077Z,9.97
2019-02-22T13:57:02.275Z,9.53
2019-02-22T14:02:06.775Z,10.67
2019-02-22T14:07:10.959Z,16.40
2019-02-22T14:12:15.143Z,13.63
2019-02-22T14:17:19.416Z,9.83
2019-02-22T14:22:23.655Z,9.70
2019-02-22T14:27:27.866Z,5.42
2019-02-22T14:32:32.143Z,6.47
2019-02-22T14:37:36.568Z,9.97
2019-02-22T14:42:40.937Z,9.95
2019-02-22T14:47:45.134Z,8.50
2019-02-22T14:52:49.423Z,10.40
2019-02-22T14:57:53.648Z,11.03
2019-02-22T15:02:57.857Z,11.10
2019-02-22T15:08:02.059Z,14.63
2019-02-22T15:13:06.261Z,15.13
2019-02-22T15:18:10.537Z,15.17
2019-02-22T15:23:14.732Z,10.53
2019-02-22T15:28:18.919Z,10.90
2019-02-22T15:33:23.088Z,7.97
2019-02-22T15:38:27.327Z,7.97
2019-02-22T15:43:31.522Z,8.30
2019-02-22T15:48:35.821Z,6.97
2019-02-22T15:53:40.074Z,7.03
2019-02-22T15:58:44.420Z,7.83
2019-02-22T16:03:56.715Z,8.70
2019-02-22T16:09:00.904Z,7.70
2019-02-22T16:14:07.239Z,8.40
2019-02-22T16:19:11.440Z,12.73
2019-02-22T16:24:15.632Z,13.30
2019-02-22T16:29:19.911Z,12.83
2019-02-22T16:34:24.132Z,11.63
2019-02-22T16:39:28.409Z,9.47
2019-02-22T16:44:32.686Z,8.90
2019-02-22T16:49:36.892Z,9.37
2019-02-22T16:54:41.147Z,9.30
2019-02-22T16:59:45.385Z,8.77
2019-02-22T17:04:49.597Z,8.77
2019-02-22T17:09:53.775Z,9.00
2019-02-22T17:14:57.969Z,9.03
2019-02-22T17:20:02.250Z,12.37
2019-02-22T17:25:08.194Z,8.80
2019-02-22T17:30:13.360Z,9.83
2019-02-22T17:35:17.598Z,18.10
2019-02-22T17:40:21.943Z,9.23
2019-02-22T17:45:26.159Z,9.37
2019-02-22T17:50:30.335Z,9.30
2019-02-22T17:55:34.801Z,11.43
2019-02-22T18:00:39.065Z,10.57
2019-02-22T18:05:43.343Z,10.53
2019-02-22T18:10:48.199Z,11.33
2019-02-22T18:15:52.464Z,11.70
2019-02-22T18:20:56.716Z,12.00
2019-02-22T18:26:01.023Z,12.47
2019-02-22T18:31:05.212Z,12.67
2019-02-22T18:36:09.536Z,12.87
2019-02-22T18:41:13.827Z,12.70
2019-02-22T18:46:18.043Z,13.77
2019-02-22T18:51:22.352Z,14.67
2019-02-22T18:56:26.539Z,14.73
2019-02-22T19:01:30.735Z,14.13
2019-02-22T19:06:35.184Z,14.20
2019-02-22T19:11:39.399Z,14.73
2019-02-22T19:16:43.789Z,16.90
2019-02-22T19:21:49.481Z,16.20
2019-02-22T19:26:53.753Z,16.00
2019-02-22T19:32:00.216Z,16.00
2019-02-22T19:37:04.511Z,15.70
2019-02-22T19:42:08.883Z,15.97
2019-02-22T19:47:13.249Z,15.77
2019-02-22T19:52:17.487Z,15.63
2019-02-22T19:57:21.707Z,15.30
2019-02-22T20:02:25.941Z,15.97
2019-02-22T20:07:30.188Z,17.27
2019-02-22T20:12:34.403Z,17.33
2019-02-22T20:17:40.326Z,16.70
2019-02-22T20:22:44.868Z,16.07
2019-02-22T20:27:49.175Z,16.70
2019-02-22T20:32:53.376Z,17.53
2019-02-22T20:37:57.794Z,20.87
2019-02-22T20:43:02.118Z,18.67
2019-02-22T20:48:06.422Z,15.53
2019-02-22T20:53:10.807Z,16.73
2019-02-22T20:58:17.423Z,17.03
2019-02-22T21:03:21.770Z,18.03
2019-02-22T21:08:26.282Z,17.47
2019-02-22T21:13:30.518Z,16.30
2019-02-22T21:18:34.754Z,16.93
2019-02-22T21:23:39.043Z,17.03
2019-02-22T21:28:45.398Z,17.20
2019-02-22T21:33:49.643Z,16.90
2019-02-22T21:38:53.853Z,15.30
2019-02-22T21:43:58.066Z,16.20
2019-02-22T21:49:02.821Z,16.60
2019-02-22T21:54:07.145Z,16.27
2019-02-22T21:59:11.337Z,15.57
2019-02-22T22:04:15.537Z,18.17
2019-02-22T22:09:19.723Z,15.93
2019-02-22T22:14:23.948Z,15.60
2019-02-22T22:19:28.135Z,15.20
2019-02-22T22:24:32.343Z,15.33
2019-02-22T22:29:36.542Z,14.80
2019-02-22T22:34:40.803Z,16.30
2019-02-22T22:39:45.032Z,14.17
2019-02-22T22:44:49.232Z,13.00
2019-02-22T22:49:53.428Z,13.10
2019-02-22T22:55:00.123Z,12.53
2019-02-22T23:00:03.696Z,11.77
2019-02-22T23:05:08.299Z,12.80
2019-02-22T23:10:12.697Z,12.53
2019-02-22T23:15:16.879Z,11.47
2019-02-22T23:20:21.148Z,11.83
2019-02-22T23:25:25.413Z,12.27
2019-02-22T23:30:29.727Z,13.90
2019-02-22T23:35:34.000Z,11.60
2019-02-22T23:40:38.201Z,11.13
2019-02-22T23:45:42.409Z,10.80
2019-02-22T23:50:46.597Z,10.57
2019-02-22T23:55:50.872Z,11.07
